createdAt,value
2022-08-09T00:01:25.759Z,953.56
2022-08-09T00:04:06.251Z,953.51
2022-08-09T00:06:23.052Z,953.59
2022-08-09T00:08:44.803Z,953.57
2022-08-09T00:11:25.173Z,953.56
2022-08-09T00:13:38.449Z,953.61
2022-08-09T00:16:03.951Z,953.64
2022-08-09T00:18:30.344Z,953.66
2022-08-09T00:20:56.742Z,953.62
2022-08-09T00:23:58.233Z,953.60
2022-08-09T00:25:51.777Z,953.67
2022-08-09T00:28:16.013Z,953.71
2022-08-09T00:30:42.382Z,953.68
2022-08-09T00:33:08.772Z,953.78
2022-08-09T00:35:43.297Z,953.73
2022-08-09T00:38:01.539Z,953.78
2022-08-09T00:40:31.081Z,953.75
2022-08-09T00:44:12.957Z,953.74
2022-08-09T00:45:20.989Z,953.68
2022-08-09T00:47:47.422Z,953.73
2022-08-09T00:50:14.852Z,953.74
2022-08-09T00:52:40.220Z,953.79
2022-08-09T00:55:06.579Z,953.75
2022-08-09T00:57:34.411Z,953.76
2022-08-09T00:59:59.528Z,953.77
2022-08-09T01:02:25.904Z,953.83
2022-08-09T01:04:52.290Z,953.88
2022-08-09T01:07:18.674Z,953.81
2022-08-09T01:09:46.891Z,953.87
2022-08-09T01:12:12.675Z,953.89
2022-08-09T01:14:37.782Z,953.91
2022-08-09T01:17:04.162Z,953.95
2022-08-09T01:19:42.891Z,953.91
2022-08-09T01:21:56.912Z,953.83
2022-08-09T01:24:23.335Z,953.92
2022-08-09T01:26:53.616Z,953.85
2022-08-09T01:29:16.075Z,953.79
2022-08-09T01:32:30.680Z,953.74
2022-08-09T01:34:09.058Z,953.73
2022-08-09T01:36:35.334Z,953.69
2022-08-09T01:39:01.852Z,953.66
2022-08-09T01:41:28.077Z,953.56
2022-08-09T01:43:54.494Z,953.56
2022-08-09T01:46:23.981Z,953.49
2022-08-09T01:48:47.221Z,953.59
2022-08-09T01:51:13.689Z,953.55
2022-08-09T01:53:41.664Z,953.51
2022-08-09T01:56:06.413Z,953.60
2022-08-09T01:58:32.810Z,953.56
2022-08-09T02:00:59.210Z,953.57
2022-08-09T02:03:25.540Z,953.61
2022-08-09T02:05:53.688Z,953.60
2022-08-09T02:08:35.124Z,953.55
2022-08-09T02:10:51.124Z,953.52
2022-08-09T02:13:11.180Z,953.49
2022-08-09T02:15:49.403Z,953.54
2022-08-09T02:18:10.473Z,953.47
2022-08-09T02:20:32.876Z,953.54
2022-08-09T02:22:56.807Z,953.56
2022-08-09T02:25:23.243Z,953.49
2022-08-09T02:28:00.388Z,953.48
2022-08-09T02:30:15.985Z,953.49
2022-08-09T02:32:42.366Z,953.50
2022-08-09T02:35:17.287Z,953.56
2022-08-09T02:37:36.660Z,953.50
2022-08-09T02:40:03.054Z,953.59
2022-08-09T02:42:27.848Z,953.56
2022-08-09T02:44:54.238Z,953.56
2022-08-09T02:47:20.613Z,953.54
2022-08-09T02:49:46.973Z,953.61
2022-08-09T02:52:13.354Z,953.62
2022-08-09T02:54:54.687Z,953.56
2022-08-09T02:57:13.954Z,953.63
2022-08-09T02:59:36.744Z,953.62
2022-08-09T03:02:06.088Z,953.61
2022-08-09T03:04:28.782Z,953.67
2022-08-09T03:06:51.587Z,953.72
2022-08-09T03:09:18.009Z,953.71
2022-08-09T03:12:05.792Z,953.64
2022-08-09T03:14:10.782Z,953.64
2022-08-09T03:16:41.783Z,953.64
2022-08-09T03:19:03.531Z,953.59
2022-08-09T03:21:39.599Z,953.64
2022-08-09T03:24:04.003Z,953.63
2022-08-09T03:26:32.042Z,953.76
2022-08-09T03:28:49.167Z,953.74
2022-08-09T03:31:21.354Z,953.74
2022-08-09T03:33:53.599Z,953.75
2022-08-09T03:36:16.187Z,953.78
2022-08-09T03:38:34.732Z,953.86
2022-08-09T03:41:01.131Z,953.82
2022-08-09T03:43:32.160Z,953.85
2022-08-09T03:46:04.969Z,953.87
2022-08-09T03:48:30.789Z,953.83
2022-08-09T03:50:46.758Z,953.90
2022-08-09T03:53:13.115Z,953.92
2022-08-09T03:55:40.828Z,953.91
2022-08-09T03:58:16.198Z,953.86
2022-08-09T04:00:32.271Z,953.86
2022-08-09T04:02:58.611Z,953.89
2022-08-09T04:05:27.474Z,953.89
2022-08-09T04:07:56.592Z,953.87
2022-08-09T04:10:20.444Z,953.91
2022-08-09T04:12:44.532Z,953.91
2022-08-09T04:15:11.386Z,953.92
2022-08-09T04:17:36.979Z,953.90
2022-08-09T04:20:03.559Z,953.81
2022-08-09T04:22:29.996Z,953.87
2022-08-09T04:24:56.096Z,953.94
2022-08-09T04:27:22.566Z,953.96
2022-08-09T04:29:50.052Z,954.00
2022-08-09T04:32:15.296Z,954.03
2022-08-09T04:34:54.155Z,954.05
2022-08-09T04:37:08.083Z,954.00
2022-08-09T04:39:40.494Z,954.08
2022-08-09T04:42:02.749Z,954.06
2022-08-09T04:44:27.876Z,954.07
2022-08-09T04:46:58.539Z,954.06
2022-08-09T04:49:30.314Z,954.16
2022-08-09T04:51:47.176Z,954.14
2022-08-09T04:54:13.605Z,954.14
2022-08-09T04:56:40.041Z,954.20
2022-08-09T04:59:12.967Z,954.19
2022-08-09T05:01:32.806Z,954.19
2022-08-09T05:03:59.218Z,954.17
2022-08-09T05:06:27.524Z,954.19
2022-08-09T05:08:51.945Z,954.24
2022-08-09T05:11:18.329Z,954.29
2022-08-09T05:13:44.764Z,954.23
2022-08-09T05:16:11.161Z,954.23
2022-08-09T05:18:58.538Z,954.25
2022-08-09T05:21:09.982Z,954.23
2022-08-09T05:23:55.143Z,954.28
2022-08-09T05:25:56.844Z,954.29
2022-08-09T05:28:23.161Z,954.25
2022-08-09T05:30:51.642Z,954.30
2022-08-09T05:33:15.908Z,954.32
2022-08-09T05:35:47.046Z,954.32
2022-08-09T05:38:08.672Z,954.38
2022-08-09T05:40:35.125Z,954.36
2022-08-09T05:43:01.488Z,954.36
2022-08-09T05:45:52.493Z,954.41
2022-08-09T05:47:59.227Z,954.36
2022-08-09T05:50:31.978Z,954.35
2022-08-09T05:52:52.092Z,954.33
2022-08-09T05:55:20.357Z,954.33
2022-08-09T05:57:50.663Z,954.34
2022-08-09T06:00:06.147Z,954.32
2022-08-09T06:02:32.775Z,954.28
2022-08-09T06:04:58.935Z,954.37
2022-08-09T06:07:25.317Z,954.34
2022-08-09T06:10:01.800Z,954.38
2022-08-09T06:12:18.107Z,954.35
2022-08-09T06:14:44.569Z,954.34
2022-08-09T06:17:10.956Z,954.36
2022-08-09T06:19:37.651Z,954.33
2022-08-09T06:22:04.037Z,954.33
2022-08-09T06:24:30.593Z,954.34
2022-08-09T06:26:57.042Z,954.37
2022-08-09T06:29:23.427Z,954.32
2022-08-09T06:32:08.515Z,954.34
2022-08-09T06:34:16.217Z,954.33
2022-08-09T06:36:42.904Z,954.33
2022-08-09T06:39:11.695Z,954.26
2022-08-09T06:41:56.767Z,954.31
2022-08-09T06:44:01.920Z,954.29
2022-08-09T06:46:39.928Z,954.27
2022-08-09T06:48:58.484Z,954.25
2022-08-09T06:51:21.071Z,954.29
2022-08-09T06:53:49.953Z,954.25
2022-08-09T06:56:13.870Z,954.22
2022-08-09T07:00:46.968Z,954.23
2022-08-09T07:01:07.980Z,954.29
2022-08-09T07:03:33.036Z,954.23
2022-08-09T07:06:03.897Z,954.22
2022-08-09T07:08:25.827Z,954.20
2022-08-09T07:10:52.187Z,954.25
2022-08-09T07:13:29.300Z,954.22
2022-08-09T07:16:35.300Z,954.22
2022-08-09T07:18:11.415Z,954.07
2022-08-09T07:20:39.564Z,954.23
2022-08-09T07:23:04.171Z,954.23
2022-08-09T07:25:30.621Z,954.17
2022-08-09T07:27:57.060Z,954.16
2022-08-09T07:30:24.354Z,954.23
2022-08-09T07:32:51.558Z,954.14
2022-08-09T07:35:16.189Z,954.20
2022-08-09T07:37:43.727Z,954.18
2022-08-09T07:40:08.948Z,954.15
2022-08-09T07:42:35.599Z,954.23
2022-08-09T07:45:06.511Z,954.22
2022-08-09T07:47:28.206Z,954.16
2022-08-09T07:50:07.601Z,954.13
2022-08-09T07:52:20.955Z,954.16
2022-08-09T07:54:51.548Z,954.19
2022-08-09T07:57:14.141Z,954.24
2022-08-09T07:59:52.091Z,954.15
2022-08-09T08:02:07.027Z,954.17
2022-08-09T08:04:33.462Z,954.12
2022-08-09T08:07:00.265Z,954.12
2022-08-09T08:09:38.442Z,954.07
2022-08-09T08:12:24.072Z,954.11
2022-08-09T08:14:18.968Z,954.07
2022-08-09T08:17:00.970Z,954.02
2022-08-09T08:19:11.827Z,954.00
2022-08-09T08:21:39.715Z,953.91
2022-08-09T08:24:12.007Z,953.96
2022-08-09T08:26:54.962Z,953.93
2022-08-09T08:28:57.338Z,953.86
2022-08-09T08:31:24.590Z,953.87
2022-08-09T08:33:54.057Z,953.81
2022-08-09T08:36:28.326Z,953.77
2022-08-09T08:38:43.021Z,953.80
2022-08-09T08:41:09.432Z,953.81
2022-08-09T08:43:36.138Z,953.74
2022-08-09T08:46:10.046Z,953.80
2022-08-09T08:48:29.177Z,953.73
2022-08-09T08:50:55.124Z,953.73
2022-08-09T08:53:22.363Z,953.65
2022-08-09T08:55:48.000Z,953.68
2022-08-09T08:58:14.456Z,953.72
2022-08-09T09:00:40.821Z,953.72
2022-08-09T09:03:08.675Z,953.69
2022-08-09T09:05:59.906Z,953.62
2022-08-09T09:08:00.133Z,953.54
2022-08-09T09:10:26.715Z,953.51
2022-08-09T09:12:52.936Z,953.56
2022-08-09T09:15:28.155Z,953.45
2022-08-09T09:17:51.679Z,953.56
2022-08-09T09:20:15.252Z,953.50
2022-08-09T09:22:38.990Z,953.45
2022-08-09T09:26:01.761Z,953.40
2022-08-09T09:28:05.037Z,953.34
2022-08-09T09:30:14.063Z,953.40
2022-08-09T09:32:34.518Z,953.27
2022-08-09T09:34:50.582Z,953.31
2022-08-09T09:37:16.974Z,953.33
2022-08-09T09:39:55.631Z,953.32
2022-08-09T09:42:11.869Z,953.27
2022-08-09T09:44:36.199Z,953.30
2022-08-09T09:47:02.565Z,953.30
2022-08-09T09:49:55.948Z,953.26
2022-08-09T09:51:55.348Z,953.19
2022-08-09T09:54:21.707Z,953.20
2022-08-09T09:56:53.276Z,953.19
2022-08-09T09:59:16.169Z,953.21
2022-08-09T10:01:41.007Z,953.28
2022-08-09T10:04:09.747Z,953.16
2022-08-09T10:06:33.790Z,953.16
2022-08-09T10:09:00.296Z,953.17
2022-08-09T10:12:00.743Z,953.20
2022-08-09T10:13:53.019Z,953.16
2022-08-09T10:16:58.201Z,953.11
2022-08-09T10:18:51.411Z,953.07
2022-08-09T10:21:12.141Z,953.07
2022-08-09T10:23:38.500Z,953.05
2022-08-09T10:26:08.889Z,953.09
2022-08-09T10:28:31.254Z,953.05
2022-08-09T10:34:04.618Z,953.11
2022-08-09T10:35:50.753Z,953.07
2022-08-09T10:38:33.722Z,953.03
2022-08-09T10:40:44.799Z,953.04
2022-08-09T10:43:10.165Z,953.03
2022-08-09T10:45:49.285Z,953.02
2022-08-09T10:48:19.357Z,952.98
2022-08-09T10:50:32.816Z,953.04
2022-08-09T10:52:55.752Z,952.98
2022-08-09T10:55:22.753Z,953.00
2022-08-09T10:57:48.744Z,952.98
2022-08-09T11:00:14.881Z,952.90
2022-08-09T11:03:11.613Z,952.92
2022-08-09T11:05:07.693Z,952.95
2022-08-09T11:07:57.337Z,952.91
2022-08-09T11:10:00.453Z,952.91
2022-08-09T11:12:29.557Z,952.96
2022-08-09T11:14:53.172Z,952.98
2022-08-09T11:17:19.602Z,952.91
2022-08-09T11:20:07.834Z,953.02
2022-08-09T11:22:21.542Z,952.94
2022-08-09T11:24:38.766Z,952.91
2022-08-09T11:27:06.659Z,952.97
2022-08-09T11:30:04.511Z,952.89
2022-08-09T11:31:58.002Z,952.84
2022-08-09T11:34:24.382Z,952.79
2022-08-09T11:36:50.776Z,952.80
2022-08-09T11:39:17.186Z,952.70
2022-08-09T11:41:43.538Z,952.79
2022-08-09T11:44:09.947Z,952.70
2022-08-09T11:46:36.388Z,952.66
2022-08-09T11:49:05.243Z,952.65
2022-08-09T11:53:01.135Z,952.73
2022-08-09T11:53:58.645Z,952.69
2022-08-09T11:56:22.022Z,952.59
2022-08-09T11:58:50.351Z,952.66
2022-08-09T12:01:15.629Z,952.59
2022-08-09T12:03:57.136Z,952.62
2022-08-09T12:06:07.597Z,952.71
2022-08-09T12:08:34.083Z,952.63
2022-08-09T12:11:00.492Z,952.65
2022-08-09T12:14:08.501Z,952.61
2022-08-09T12:15:53.254Z,952.56
2022-08-09T12:18:29.563Z,952.47
2022-08-09T12:20:46.511Z,952.53
2022-08-09T12:23:12.508Z,952.39
2022-08-09T12:25:38.907Z,952.44
2022-08-09T12:28:58.634Z,952.42
2022-08-09T12:30:36.202Z,952.38
2022-08-09T12:32:58.023Z,952.26
2022-08-09T12:35:24.429Z,952.34
2022-08-09T12:37:53.737Z,952.34
2022-08-09T12:40:17.301Z,952.28
2022-08-09T12:42:43.671Z,952.28
2022-08-09T12:45:34.356Z,952.23
2022-08-09T12:47:44.290Z,952.20
2022-08-09T12:50:03.772Z,952.15
2022-08-09T12:52:42.988Z,952.03
2022-08-09T12:56:02.349Z,952.09
2022-08-09T12:57:23.571Z,952.01
2022-08-09T13:00:03.325Z,951.97
2022-08-09T13:02:16.512Z,951.88
2022-08-09T13:04:42.979Z,951.93
2022-08-09T13:07:09.510Z,951.89
2022-08-09T13:09:38.155Z,951.87
2022-08-09T13:12:02.553Z,951.71
2022-08-09T13:14:43.614Z,951.85
2022-08-09T13:16:56.521Z,951.82
2022-08-09T13:19:21.417Z,951.90
2022-08-09T13:22:35.264Z,951.89
2022-08-09T13:24:44.658Z,951.90
2022-08-09T13:26:40.633Z,952.02
2022-08-09T13:29:07.464Z,951.96
2022-08-09T13:32:20.310Z,952.05
2022-08-09T13:33:59.845Z,951.91
2022-08-09T13:36:41.280Z,952.09
2022-08-09T13:38:56.225Z,951.98
2022-08-09T13:41:57.707Z,951.96
2022-08-09T13:43:45.484Z,951.96
2022-08-09T13:47:16.375Z,951.94
2022-08-09T13:48:38.283Z,951.94
2022-08-09T13:51:04.644Z,951.93
2022-08-09T13:53:41.482Z,951.89
2022-08-09T13:55:57.818Z,951.95
2022-08-09T13:58:24.553Z,951.93
2022-08-09T14:00:55.450Z,951.93
2022-08-09T14:04:02.304Z,951.87
2022-08-09T14:05:58.993Z,951.88
2022-08-09T14:08:15.916Z,951.90
2022-08-09T14:10:49.111Z,951.89
2022-08-09T14:13:12.074Z,951.86
2022-08-09T14:16:09.350Z,951.82
2022-08-09T14:18:18.925Z,951.71
2022-08-09T14:20:29.243Z,951.74
2022-08-09T14:22:53.286Z,951.82
2022-08-09T14:25:19.645Z,951.78
2022-08-09T14:27:57.175Z,951.82
2022-08-09T14:30:36.662Z,951.68
2022-08-09T14:32:38.940Z,951.76
2022-08-09T14:35:05.185Z,951.67
2022-08-09T14:37:41.249Z,951.71
2022-08-09T14:39:58.072Z,951.72
2022-08-09T14:42:31.149Z,951.67
2022-08-09T14:44:59.270Z,951.60
2022-08-09T14:47:42.762Z,951.60
2022-08-09T14:49:49.204Z,951.58
2022-08-09T14:52:09.911Z,951.57
2022-08-09T14:54:36.343Z,951.56
2022-08-09T14:57:02.705Z,951.52
2022-08-09T14:59:29.107Z,951.56
2022-08-09T15:01:55.470Z,951.43
2022-08-09T15:04:23.459Z,951.45
2022-08-09T15:06:49.706Z,951.50
2022-08-09T15:09:14.725Z,951.53
2022-08-09T15:11:43.389Z,951.43
2022-08-09T15:14:13.408Z,951.39
2022-08-09T15:16:33.859Z,951.41
2022-08-09T15:19:05.818Z,951.39
2022-08-09T15:21:56.920Z,951.42
2022-08-09T15:24:05.679Z,951.41
2022-08-09T15:26:31.754Z,951.42
2022-08-09T15:28:45.767Z,951.43
2022-08-09T15:31:16.206Z,951.46
2022-08-09T15:34:32.933Z,951.45
2022-08-09T15:36:05.650Z,951.37
2022-08-09T15:38:31.304Z,951.40
2022-08-09T15:40:57.745Z,951.42
2022-08-09T15:43:24.841Z,951.39
2022-08-09T15:45:51.795Z,951.50
2022-08-09T15:48:28.832Z,951.51
2022-08-09T15:50:43.714Z,951.55
2022-08-09T15:54:02.091Z,951.58
2022-08-09T15:56:10.833Z,951.58
2022-08-09T15:58:02.680Z,951.58
2022-08-09T16:00:29.112Z,951.53
2022-08-09T16:02:56.193Z,951.54
2022-08-09T16:05:21.944Z,951.62
2022-08-09T16:07:49.436Z,951.54
2022-08-09T16:10:38.742Z,951.64
2022-08-09T16:12:41.466Z,951.63
2022-08-09T16:16:10.958Z,951.59
2022-08-09T16:17:33.750Z,951.64
2022-08-09T16:20:05.015Z,951.64
2022-08-09T16:22:27.477Z,951.59
2022-08-09T16:24:57.038Z,951.58
2022-08-09T16:27:19.365Z,951.55
2022-08-09T16:29:50.037Z,951.53
2022-08-09T16:32:33.109Z,951.64
2022-08-09T16:34:53.383Z,951.56
2022-08-09T16:37:04.835Z,951.63
2022-08-09T16:39:31.245Z,951.63
2022-08-09T16:42:02.784Z,951.64
2022-08-09T16:44:25.287Z,951.67
2022-08-09T16:46:55.069Z,951.72
2022-08-09T16:50:30.487Z,951.77
2022-08-09T16:51:43.246Z,951.78
2022-08-09T16:54:25.735Z,951.69
2022-08-09T16:56:36.373Z,951.73
2022-08-09T16:59:06.801Z,951.71
2022-08-09T17:01:28.958Z,951.77
2022-08-09T17:03:55.266Z,951.77
2022-08-09T17:06:31.122Z,951.87
2022-08-09T17:09:01.413Z,951.92
2022-08-09T17:11:15.243Z,951.92
2022-08-09T17:13:40.856Z,951.98
2022-08-09T17:16:07.234Z,952.02
2022-08-09T17:18:33.742Z,952.06
2022-08-09T17:21:00.098Z,952.15
2022-08-09T17:24:20.625Z,952.11
2022-08-09T17:25:53.370Z,952.18
2022-08-09T17:28:19.270Z,952.21
2022-08-09T17:30:47.831Z,952.36
2022-08-09T17:33:22.611Z,952.31
2022-08-09T17:35:40.882Z,952.39
2022-08-09T17:38:13.792Z,952.43
2022-08-09T17:40:32.689Z,952.42
2022-08-09T17:42:59.709Z,952.42
2022-08-09T17:45:27.403Z,952.45
2022-08-09T17:47:55.509Z,952.47
2022-08-09T17:50:17.088Z,952.53
2022-08-09T17:52:43.086Z,952.60
2022-08-09T17:55:09.475Z,952.54
2022-08-09T17:58:03.036Z,952.53
2022-08-09T18:00:05.562Z,952.64
2022-08-09T18:02:33.528Z,952.68
2022-08-09T18:04:55.046Z,952.78
2022-08-09T18:07:23.277Z,952.80
2022-08-09T18:10:04.938Z,952.80
2022-08-09T18:12:17.684Z,952.87
2022-08-09T18:14:53.759Z,952.90
2022-08-09T18:17:07.024Z,952.91
2022-08-09T18:20:56.929Z,952.96
2022-08-09T18:21:59.874Z,952.95
2022-08-09T18:24:27.558Z,952.99
2022-08-09T18:26:52.638Z,953.05
2022-08-09T18:30:40.109Z,953.06
2022-08-09T18:31:54.991Z,953.14
2022-08-09T18:34:11.886Z,953.19
2022-08-09T18:36:38.273Z,953.17
2022-08-09T18:39:04.751Z,953.20
2022-08-09T18:41:34.694Z,953.21
2022-08-09T18:43:57.823Z,953.24
2022-08-09T18:46:50.971Z,953.22
2022-08-09T18:48:50.595Z,953.27
2022-08-09T18:51:17.107Z,953.31
2022-08-09T18:54:00.698Z,953.32
2022-08-09T18:56:09.937Z,953.33
2022-08-09T18:58:36.318Z,953.40
2022-08-09T19:01:02.828Z,953.35
2022-08-09T19:03:29.209Z,953.40
2022-08-09T19:06:03.242Z,953.40
2022-08-09T19:08:22.236Z,953.45
2022-08-09T19:10:48.639Z,953.47
2022-08-09T19:13:22.328Z,953.46
2022-08-09T19:15:41.365Z,953.48
2022-08-09T19:18:17.108Z,953.51
2022-08-09T19:20:39.067Z,953.52
2022-08-09T19:23:00.700Z,953.55
2022-08-09T19:25:41.205Z,953.47
2022-08-09T19:27:53.460Z,953.49
2022-08-09T19:30:22.636Z,953.55
2022-08-09T19:32:46.315Z,953.53
2022-08-09T19:35:12.682Z,953.66
2022-08-09T19:37:52.810Z,953.63
2022-08-09T19:40:05.869Z,953.61
2022-08-09T19:42:32.005Z,953.59
2022-08-09T19:44:58.266Z,953.57
2022-08-09T19:47:27.024Z,953.55
2022-08-09T19:50:08.599Z,953.54
2022-08-09T19:52:18.133Z,953.52
2022-08-09T19:54:43.744Z,953.53
2022-08-09T19:57:10.125Z,953.47
2022-08-09T19:59:58.999Z,953.50
2022-08-09T20:02:05.447Z,953.50
2022-08-09T20:04:35.940Z,953.49
2022-08-09T20:06:55.670Z,953.49
2022-08-09T20:09:45.081Z,953.48
2022-08-09T20:11:51.962Z,953.44
2022-08-09T20:14:15.326Z,953.50
2022-08-09T20:16:53.283Z,953.42
2022-08-09T20:19:47.669Z,953.45
2022-08-09T20:21:54.675Z,953.47
2022-08-09T20:24:00.484Z,953.42
2022-08-09T20:26:26.844Z,953.40
2022-08-09T20:28:53.255Z,953.43
2022-08-09T20:31:19.618Z,953.40
2022-08-09T20:33:46.011Z,953.46
2022-08-09T20:36:12.444Z,953.42
2022-08-09T20:39:17.038Z,953.45
2022-08-09T20:41:05.310Z,953.51
2022-08-09T20:43:31.637Z,953.58
2022-08-09T20:46:15.476Z,953.62
2022-08-09T20:48:24.403Z,953.66
2022-08-09T20:50:55.632Z,953.69
2022-08-09T20:53:22.804Z,953.72
2022-08-09T20:55:47.292Z,953.80
2022-08-09T20:58:19.755Z,953.79
2022-08-09T21:00:36.329Z,953.85
2022-08-09T21:03:02.776Z,953.84
2022-08-09T21:05:53.626Z,953.90
2022-08-09T21:08:00.175Z,953.83
2022-08-09T21:10:22.204Z,953.84
2022-08-09T21:15:15.018Z,953.85
2022-08-09T21:18:11.158Z,953.76
2022-08-09T21:20:22.463Z,953.89
2022-08-09T21:22:38.705Z,953.92
2022-08-09T21:25:00.472Z,953.89
2022-08-09T21:28:00.384Z,953.93
2022-08-09T21:29:53.272Z,953.92
2022-08-09T21:32:19.633Z,953.97
2022-08-09T21:34:48.249Z,953.94
2022-08-09T21:37:18.342Z,953.87
2022-08-09T21:39:41.827Z,953.83
2022-08-09T21:42:10.383Z,953.89
2022-08-09T21:44:34.601Z,953.91
2022-08-09T21:46:57.928Z,953.90
2022-08-09T21:49:24.311Z,953.96
2022-08-09T21:51:51.177Z,953.91
2022-08-09T21:54:17.092Z,953.89
2022-08-09T21:56:54.379Z,953.88
2022-08-09T21:59:09.954Z,953.94
2022-08-09T22:01:59.078Z,953.80
2022-08-09T22:04:02.758Z,953.79
2022-08-09T22:06:29.118Z,953.77
2022-08-09T22:08:55.501Z,953.80
2022-08-09T22:12:06.172Z,953.79
2022-08-09T22:13:48.241Z,953.76
2022-08-09T22:16:14.882Z,953.69
2022-08-09T22:18:52.999Z,953.70
2022-08-09T22:21:09.245Z,953.66
2022-08-09T22:23:35.566Z,953.61
2022-08-09T22:26:07.323Z,953.61
2022-08-09T22:28:32.522Z,953.61
2022-08-09T22:30:53.181Z,953.64
2022-08-09T22:33:19.545Z,953.70
2022-08-09T22:35:59.867Z,953.65
2022-08-09T22:38:12.279Z,953.69
2022-08-09T22:40:38.669Z,953.61
2022-08-09T22:43:16.107Z,953.69
2022-08-09T22:48:14.950Z,953.67
2022-08-09T22:48:18.556Z,953.64
2022-08-09T22:50:24.208Z,953.64
2022-08-09T22:52:57.629Z,953.64
2022-08-09T22:55:21.917Z,953.67
2022-08-09T22:57:59.513Z,953.59
2022-08-09T23:00:09.711Z,953.66
2022-08-09T23:02:36.073Z,953.59
2022-08-09T23:05:02.531Z,953.58
2022-08-09T23:08:21.306Z,953.64
2022-08-09T23:09:55.287Z,953.53
2022-08-09T23:12:21.712Z,953.65
2022-08-09T23:14:48.162Z,953.66
2022-08-09T23:17:14.519Z,953.69
2022-08-09T23:20:07.293Z,953.67
2022-08-09T23:22:07.280Z,953.62
2022-08-09T23:24:33.645Z,953.60
2022-08-09T23:27:00.009Z,953.61
2022-08-09T23:29:26.444Z,953.59
2022-08-09T23:31:54.528Z,953.63
2022-08-09T23:34:19.177Z,953.59
2022-08-09T23:36:45.642Z,953.52
2022-08-09T23:39:12.072Z,953.61
2022-08-09T23:41:38.406Z,953.56
2022-08-09T23:44:04.838Z,953.51
2022-08-09T23:46:31.275Z,953.55
2022-08-09T23:48:57.709Z,953.46
2022-08-09T23:51:24.138Z,953.43
2022-08-09T23:53:52.540Z,953.46
2022-08-09T23:56:16.905Z,953.52
2022-08-09T23:58:43.334Z,953.49
